createdAt,value
2022-10-10T00:01:41.527Z,29.23
2022-10-10T00:04:09.574Z,85.97
2022-10-10T00:06:37.563Z,17.20
2022-10-10T00:09:06.740Z,33.07
2022-10-10T00:11:34.819Z,17.13
2022-10-10T00:14:04.274Z,17.33
2022-10-10T00:16:32.403Z,40.60
2022-10-10T00:19:00.435Z,57.07
2022-10-10T00:21:28.455Z,11.13
2022-10-10T00:23:56.476Z,44.13
2022-10-10T00:26:24.487Z,74.90
2022-10-10T00:28:52.527Z,22.23
2022-10-10T00:31:21.903Z,36.33
2022-10-10T00:33:49.960Z,86.20
2022-10-10T00:36:20.489Z,28.50
2022-10-10T00:38:48.906Z,69.10
2022-10-10T00:41:17.153Z,17.67
2022-10-10T00:44:01.555Z,43.80
2022-10-10T00:46:30.935Z,218.57
2022-10-10T00:48:59.178Z,20.07
2022-10-10T00:51:27.303Z,30.33
2022-10-10T00:53:59.784Z,36.80
2022-10-10T00:56:31.956Z,39.83
2022-10-10T00:59:04.291Z,106.13
2022-10-10T01:01:33.780Z,112.40
2022-10-10T01:04:03.323Z,17.27
2022-10-10T01:06:31.474Z,37.03
2022-10-10T01:09:00.032Z,43.90
2022-10-10T01:11:39.179Z,127.93
2022-10-10T01:14:17.786Z,27.77
2022-10-10T01:16:57.574Z,42.47
2022-10-10T01:19:57.829Z,36.10
2022-10-10T01:22:33.979Z,68.43
2022-10-10T01:25:15.202Z,63.40
2022-10-10T01:27:46.060Z,19.33
2022-10-10T01:30:18.778Z,52.90
2022-10-10T01:32:53.942Z,47.10
2022-10-10T01:35:45.187Z,30.27
2022-10-10T01:38:23.969Z,23.43
2022-10-10T01:40:57.749Z,16.53
2022-10-10T01:43:26.794Z,67.27
2022-10-10T01:45:56.191Z,28.90
2022-10-10T01:48:29.206Z,36.03
2022-10-10T01:51:17.339Z,31.13
2022-10-10T01:53:51.815Z,33.77
2022-10-10T01:56:31.575Z,37.73
2022-10-10T01:59:11.535Z,15.07
2022-10-10T02:01:48.194Z,33.77
2022-10-10T02:04:23.764Z,107.47
2022-10-10T02:06:55.726Z,56.90
2022-10-10T02:09:29.681Z,70.23
2022-10-10T02:11:59.475Z,31.90
2022-10-10T02:14:31.591Z,48.40
2022-10-10T02:17:03.121Z,17.90
2022-10-10T02:19:32.061Z,18.90
2022-10-10T02:22:01.518Z,23.83
2022-10-10T02:24:29.787Z,31.27
2022-10-10T02:27:02.416Z,29.00
2022-10-10T02:29:34.123Z,27.83
2022-10-10T02:32:09.503Z,23.73
2022-10-10T02:34:39.839Z,67.70
2022-10-10T02:37:12.455Z,59.57
2022-10-10T02:39:45.056Z,19.93
2022-10-10T02:42:17.455Z,41.67
2022-10-10T02:44:46.530Z,34.27
2022-10-10T02:47:16.175Z,92.13
2022-10-10T02:49:44.857Z,26.53
2022-10-10T02:52:15.941Z,42.23
2022-10-10T02:54:44.461Z,32.83
2022-10-10T02:57:12.756Z,146.77
2022-10-10T02:59:40.949Z,15.07
2022-10-10T03:02:09.209Z,34.03
2022-10-10T03:04:38.930Z,12.87
2022-10-10T03:07:07.036Z,24.03
2022-10-10T03:09:35.150Z,31.17
2022-10-10T03:12:03.242Z,58.43
2022-10-10T03:14:31.250Z,27.10
2022-10-10T03:16:59.341Z,48.87
2022-10-10T03:19:27.548Z,50.53
2022-10-10T03:21:56.903Z,57.73
2022-10-10T03:24:25.006Z,391.00
2022-10-10T03:26:53.008Z,61.77
2022-10-10T03:29:21.189Z,98.17
2022-10-10T03:31:49.234Z,31.57
2022-10-10T03:34:17.423Z,41.40
2022-10-10T03:36:45.423Z,79.47
2022-10-10T03:39:14.792Z,238.17
2022-10-10T03:41:42.778Z,37.67
2022-10-10T03:44:10.814Z,175.40
2022-10-10T03:46:38.826Z,166.33
2022-10-10T03:49:06.834Z,67.30
2022-10-10T03:51:34.837Z,263.53
2022-10-10T03:54:02.844Z,23.43
2022-10-10T03:56:32.389Z,38.60
2022-10-10T03:59:00.918Z,36.67
2022-10-10T04:01:30.097Z,30.20
2022-10-10T04:03:58.125Z,23.57
2022-10-10T04:06:27.525Z,73.47
2022-10-10T04:08:55.528Z,28.63
2022-10-10T04:11:23.575Z,25.73
2022-10-10T04:13:52.943Z,33.97
2022-10-10T04:16:20.907Z,34.83
2022-10-10T04:18:48.926Z,39.40
2022-10-10T04:21:16.910Z,38.43
2022-10-10T04:23:44.940Z,31.03
2022-10-10T04:26:12.927Z,29.33
2022-10-10T04:28:40.966Z,116.77
2022-10-10T04:31:10.347Z,62.23
2022-10-10T04:33:38.456Z,20.60
2022-10-10T04:36:06.683Z,44.07
2022-10-10T04:38:35.057Z,23.50
2022-10-10T04:41:03.417Z,15.73
2022-10-10T04:43:31.511Z,33.33
2022-10-10T04:45:59.842Z,44.17
2022-10-10T04:48:29.298Z,40.13
2022-10-10T04:50:59.535Z,44.53
2022-10-10T04:53:28.503Z,48.73
2022-10-10T04:55:56.738Z,30.67
2022-10-10T04:58:25.121Z,65.57
2022-10-10T05:00:53.875Z,49.60
2022-10-10T05:03:22.526Z,59.57
2022-10-10T05:05:51.981Z,105.73
2022-10-10T05:08:20.371Z,35.90
2022-10-10T05:10:48.813Z,22.10
2022-10-10T05:13:17.833Z,53.87
2022-10-10T05:15:45.998Z,38.17
2022-10-10T05:18:14.101Z,25.87
2022-10-10T05:20:43.947Z,37.07
2022-10-10T05:23:13.630Z,27.83
2022-10-10T05:25:44.226Z,66.00
2022-10-10T05:28:12.727Z,100.67
2022-10-10T05:30:40.734Z,34.67
2022-10-10T05:33:08.944Z,19.20
2022-10-10T05:35:37.243Z,58.40
2022-10-10T05:38:05.357Z,55.87
2022-10-10T05:40:34.723Z,29.70
2022-10-10T05:43:02.723Z,64.07
2022-10-10T05:45:30.785Z,57.30
2022-10-10T05:47:58.791Z,37.83
2022-10-10T05:50:34.485Z,40.77
2022-10-10T05:53:02.512Z,73.80
2022-10-10T05:55:30.569Z,20.03
2022-10-10T05:57:59.941Z,22.03
2022-10-10T06:00:28.090Z,19.60
2022-10-10T06:02:58.386Z,51.40
2022-10-10T06:05:26.542Z,40.33
2022-10-10T06:08:12.163Z,43.27
2022-10-10T06:10:42.769Z,59.43
2022-10-10T06:13:12.868Z,67.90
2022-10-10T06:15:41.362Z,24.33
2022-10-10T06:18:10.461Z,50.97
2022-10-10T06:20:38.898Z,41.70
2022-10-10T06:23:08.512Z,71.10
2022-10-10T06:25:41.732Z,30.97
2022-10-10T06:28:12.114Z,82.63
2022-10-10T06:30:44.020Z,76.70
2022-10-10T06:33:15.122Z,70.97
2022-10-10T06:35:44.446Z,65.53
2022-10-10T06:38:12.879Z,53.57
2022-10-10T06:40:41.538Z,108.43
2022-10-10T06:43:12.547Z,56.37
2022-10-10T06:45:42.478Z,48.13
2022-10-10T06:48:11.389Z,48.00
2022-10-10T06:50:39.678Z,28.03
2022-10-10T06:53:08.060Z,36.73
2022-10-10T06:55:36.072Z,191.70
2022-10-10T06:58:04.071Z,461.50
2022-10-10T07:00:33.507Z,423.10
2022-10-10T07:03:01.498Z,339.67
2022-10-10T07:05:29.543Z,1018.13
2022-10-10T07:07:57.555Z,1298.27
2022-10-10T07:10:25.613Z,1231.70
2022-10-10T07:12:53.936Z,937.30
2022-10-10T07:15:22.222Z,863.80
2022-10-10T07:17:58.045Z,815.03
2022-10-10T07:20:26.131Z,1041.43
2022-10-10T07:22:54.726Z,1251.70
2022-10-10T07:25:22.951Z,1233.07
2022-10-10T07:27:50.987Z,1201.27
2022-10-10T07:30:19.142Z,979.03
2022-10-10T07:32:47.500Z,1003.53
2022-10-10T07:35:17.107Z,841.23
2022-10-10T07:37:45.248Z,1162.37
2022-10-10T07:40:13.260Z,1008.63
2022-10-10T07:42:41.581Z,960.97
2022-10-10T07:45:12.183Z,808.90
2022-10-10T07:47:40.253Z,508.23
2022-10-10T07:50:09.906Z,663.57
2022-10-10T07:52:39.494Z,670.73
2022-10-10T07:55:08.792Z,670.07
2022-10-10T07:57:37.400Z,549.63
2022-10-10T08:00:07.518Z,160.47
2022-10-10T08:02:35.738Z,422.33
2022-10-10T08:05:03.967Z,530.33
2022-10-10T08:07:32.011Z,532.10
2022-10-10T08:10:02.506Z,185.77
2022-10-10T08:12:30.519Z,411.13
2022-10-10T08:14:59.434Z,364.97
2022-10-10T08:17:27.619Z,620.83
2022-10-10T08:19:55.639Z,410.27
2022-10-10T08:22:23.644Z,512.23
2022-10-10T08:24:51.747Z,680.40
2022-10-10T08:27:21.197Z,456.20
2022-10-10T08:29:49.333Z,791.33
2022-10-10T08:32:17.432Z,540.47
2022-10-10T08:34:45.743Z,590.53
2022-10-10T08:37:13.725Z,621.53
2022-10-10T08:39:41.751Z,522.73
2022-10-10T08:42:18.559Z,835.03
2022-10-10T08:44:52.971Z,765.07
2022-10-10T08:47:25.814Z,401.17
2022-10-10T08:49:57.495Z,595.60
2022-10-10T08:52:32.724Z,634.10
2022-10-10T08:55:03.463Z,505.90
2022-10-10T08:57:34.617Z,622.77
2022-10-10T09:00:08.009Z,478.60
2022-10-10T09:02:55.573Z,811.23
2022-10-10T09:05:38.240Z,762.40
2022-10-10T09:08:23.175Z,1305.80
2022-10-10T09:10:58.270Z,832.57
2022-10-10T09:13:33.452Z,773.47
2022-10-10T09:16:07.554Z,757.50
2022-10-10T09:18:59.519Z,822.77
2022-10-10T09:21:32.239Z,451.17
2022-10-10T09:24:05.806Z,727.87
2022-10-10T09:26:38.779Z,660.50
2022-10-10T09:29:24.483Z,655.50
2022-10-10T09:31:58.600Z,727.33
2022-10-10T09:34:35.618Z,410.87
2022-10-10T09:37:04.867Z,572.80
2022-10-10T09:39:38.753Z,777.43
2022-10-10T09:42:12.120Z,499.43
2022-10-10T09:44:40.858Z,695.80
2022-10-10T09:47:13.416Z,802.87
2022-10-10T09:49:41.663Z,712.23
2022-10-10T09:52:27.900Z,1717.93
2022-10-10T09:55:00.848Z,1702.73
2022-10-10T09:57:35.018Z,776.03
2022-10-10T10:00:33.923Z,916.47
2022-10-10T10:03:11.798Z,832.33
2022-10-10T10:05:41.038Z,626.53
2022-10-10T10:08:20.545Z,640.47
2022-10-10T10:10:48.748Z,1286.87
2022-10-10T10:13:25.332Z,525.60
2022-10-10T10:16:00.823Z,1085.80
2022-10-10T10:18:30.767Z,633.37
2022-10-10T10:21:18.004Z,787.53
2022-10-10T10:23:55.346Z,806.63
2022-10-10T10:26:27.327Z,999.20
2022-10-10T10:28:57.568Z,1263.47
2022-10-10T10:31:54.579Z,1588.80
2022-10-10T10:34:46.923Z,1030.87
2022-10-10T10:37:22.185Z,1184.60
2022-10-10T10:40:25.103Z,1026.37
2022-10-10T10:43:28.856Z,760.33
2022-10-10T10:46:07.925Z,927.63
2022-10-10T10:48:43.328Z,1464.23
2022-10-10T10:51:28.702Z,719.77
2022-10-10T10:54:05.158Z,899.07
2022-10-10T10:56:39.975Z,1358.70
2022-10-10T10:59:41.797Z,1675.23
2022-10-10T11:02:54.103Z,946.80
2022-10-10T11:05:41.777Z,1270.10
2022-10-10T11:08:31.208Z,845.60
2022-10-10T11:11:11.825Z,1088.30
2022-10-10T11:13:48.000Z,1140.83
2022-10-10T11:16:47.366Z,1051.40
2022-10-10T11:19:23.887Z,1394.33
2022-10-10T11:21:57.271Z,835.77
2022-10-10T11:24:35.638Z,966.27
2022-10-10T11:27:10.798Z,1019.13
2022-10-10T11:29:50.554Z,1084.40
2022-10-10T11:32:25.469Z,1009.57
2022-10-10T11:35:11.099Z,1885.87
2022-10-10T11:37:46.210Z,1129.30
2022-10-10T11:40:33.347Z,1909.60
2022-10-10T11:43:06.775Z,1756.53
2022-10-10T11:45:39.171Z,1061.70
2022-10-10T11:48:19.051Z,1439.73
2022-10-10T11:50:55.457Z,1400.33
2022-10-10T11:53:31.685Z,1246.30
2022-10-10T11:56:09.551Z,1212.80
2022-10-10T11:58:41.959Z,1054.07
2022-10-10T12:01:17.415Z,1148.60
2022-10-10T12:03:45.783Z,1439.83
2022-10-10T12:06:23.411Z,1567.60
2022-10-10T12:08:59.973Z,949.60
2022-10-10T12:11:34.538Z,987.00
2022-10-10T12:14:05.390Z,1145.97
2022-10-10T12:16:37.354Z,1380.37
2022-10-10T12:19:07.736Z,1879.70
2022-10-10T12:21:59.448Z,1545.10
2022-10-10T12:24:29.367Z,1416.97
2022-10-10T12:27:43.681Z,1702.50
2022-10-10T12:30:25.039Z,1287.43
2022-10-10T12:32:55.283Z,1275.32
2022-10-10T12:35:44.231Z,1644.70
2022-10-10T12:38:24.368Z,1017.77
2022-10-10T12:41:08.903Z,1495.15
2022-10-10T12:43:51.855Z,846.95
2022-10-10T12:46:31.407Z,1999.90
2022-10-10T12:49:06.999Z,1271.43
2022-10-10T12:51:37.224Z,1233.63
2022-10-10T12:54:08.268Z,1167.57
2022-10-10T12:56:40.257Z,1510.40
2022-10-10T12:59:20.267Z,1489.88
2022-10-10T13:01:53.418Z,1383.65
2022-10-10T13:04:22.247Z,1107.53
2022-10-10T13:06:53.514Z,1095.72
2022-10-10T13:09:23.843Z,1261.90
2022-10-10T13:11:57.715Z,1475.72
2022-10-10T13:14:29.155Z,1125.63
2022-10-10T13:16:57.239Z,1180.57
2022-10-10T13:19:26.172Z,1274.60
2022-10-10T13:21:56.330Z,1344.00
2022-10-10T13:24:30.458Z,1207.97
2022-10-10T13:26:59.015Z,1297.00
2022-10-10T13:29:31.179Z,1149.38
2022-10-10T13:32:03.036Z,1294.57
2022-10-10T13:34:34.218Z,1102.65
2022-10-10T13:37:04.204Z,925.38
2022-10-10T13:39:35.588Z,1302.03
2022-10-10T13:42:05.788Z,1315.63
2022-10-10T13:44:48.924Z,1379.35
2022-10-10T13:47:51.041Z,1495.40
2022-10-10T13:50:26.007Z,1130.47
2022-10-10T13:53:25.205Z,883.03
2022-10-10T13:56:01.819Z,1410.43
2022-10-10T13:58:32.837Z,1520.30
2022-10-10T14:01:05.076Z,1317.93
2022-10-10T14:03:34.782Z,1196.25
2022-10-10T14:06:02.846Z,977.13
2022-10-10T14:08:34.298Z,1488.60
2022-10-10T14:11:06.301Z,1252.25
2022-10-10T14:13:37.802Z,1310.72
2022-10-10T14:16:22.868Z,1347.78
2022-10-10T14:18:51.074Z,1122.05
2022-10-10T14:21:19.263Z,1319.63
2022-10-10T14:23:47.374Z,1324.65
2022-10-10T14:26:18.153Z,1206.38
2022-10-10T14:28:46.672Z,1999.90
2022-10-10T14:31:16.265Z,1299.60
2022-10-10T14:33:44.256Z,1981.32
2022-10-10T14:36:14.245Z,1145.05
2022-10-10T14:38:42.239Z,1101.82
2022-10-10T14:41:13.728Z,844.17
2022-10-10T14:43:45.687Z,1340.28
2022-10-10T14:46:19.034Z,1676.25
2022-10-10T14:48:47.335Z,1185.22
2022-10-10T14:51:33.612Z,1420.30
2022-10-10T14:54:11.178Z,1412.32
2022-10-10T14:57:07.691Z,1249.80
2022-10-10T14:59:46.109Z,1276.35
2022-10-10T15:02:21.813Z,1460.32
2022-10-10T15:04:50.237Z,1086.15
2022-10-10T15:07:18.794Z,1131.18
2022-10-10T15:10:56.811Z,971.33
2022-10-10T15:12:38.494Z,965.05
2022-10-10T15:15:08.400Z,919.83
2022-10-10T15:17:37.970Z,785.08
2022-10-10T15:20:08.580Z,1064.32
2022-10-10T15:22:37.170Z,1129.05
2022-10-10T15:25:06.126Z,1023.67
2022-10-10T15:27:34.317Z,999.42
2022-10-10T15:30:02.348Z,1205.10
2022-10-10T15:32:30.511Z,1041.13
2022-10-10T15:35:00.260Z,1107.15
2022-10-10T15:37:28.917Z,764.22
2022-10-10T15:39:57.091Z,1026.18
2022-10-10T15:42:25.272Z,995.35
2022-10-10T15:44:53.287Z,1100.05
2022-10-10T15:47:21.828Z,920.87
2022-10-10T15:49:50.008Z,1051.90
2022-10-10T15:52:22.994Z,1390.57
2022-10-10T15:54:51.407Z,1389.30
2022-10-10T15:57:20.127Z,1398.63
2022-10-10T15:59:48.689Z,994.20
2022-10-10T16:02:17.290Z,1105.90
2022-10-10T16:04:46.257Z,1149.18
2022-10-10T16:07:34.655Z,1366.28
2022-10-10T16:10:04.165Z,918.25
2022-10-10T16:12:32.251Z,797.35
2022-10-10T16:15:03.509Z,1563.80
2022-10-10T16:17:34.914Z,871.05
2022-10-10T16:20:03.294Z,1353.90
2022-10-10T16:22:31.321Z,1343.07
2022-10-10T16:27:48.783Z,1446.40
2022-10-10T16:30:16.967Z,949.07
2022-10-10T16:32:45.026Z,662.03
2022-10-10T16:35:13.059Z,907.05
2022-10-10T16:37:41.049Z,1278.80
2022-10-10T16:40:10.205Z,776.57
2022-10-10T16:42:38.406Z,855.67
2022-10-10T16:45:09.027Z,904.03
2022-10-10T16:47:37.430Z,916.70
2022-10-10T16:50:06.472Z,1056.73
2022-10-10T16:52:38.033Z,1088.13
2022-10-10T16:55:07.724Z,1054.47
2022-10-10T16:57:35.959Z,878.93
2022-10-10T17:00:04.114Z,847.73
2022-10-10T17:02:33.647Z,845.47
2022-10-10T17:05:01.754Z,751.40
2022-10-10T17:07:29.725Z,988.10
2022-10-10T17:09:57.746Z,928.50
2022-10-10T17:12:25.735Z,952.63
2022-10-10T17:14:53.729Z,588.87
2022-10-10T17:17:22.581Z,867.03
2022-10-10T17:19:52.298Z,845.43
2022-10-10T17:22:20.374Z,1246.03
2022-10-10T17:24:48.523Z,816.57
2022-10-10T17:27:16.593Z,726.93
2022-10-10T17:29:44.641Z,872.87
2022-10-10T17:32:12.675Z,1013.97
2022-10-10T17:34:40.850Z,995.57
2022-10-10T17:37:10.219Z,721.87
2022-10-10T17:39:38.319Z,597.40
2022-10-10T17:42:06.488Z,683.13
2022-10-10T17:44:39.740Z,1200.87
2022-10-10T17:47:11.709Z,982.73
2022-10-10T17:49:44.963Z,688.47
2022-10-10T17:52:18.835Z,1031.00
2022-10-10T17:54:49.341Z,571.00
2022-10-10T17:57:17.926Z,616.70
2022-10-10T17:59:46.397Z,789.63
2022-10-10T18:02:16.634Z,762.20
2022-10-10T18:04:45.098Z,1017.70
2022-10-10T18:07:15.045Z,797.87
2022-10-10T18:09:43.359Z,828.33
2022-10-10T18:12:11.416Z,1046.23
2022-10-10T18:14:39.436Z,730.63
2022-10-10T18:17:07.518Z,1309.47
2022-10-10T18:19:35.583Z,993.47
2022-10-10T18:22:03.578Z,755.87
2022-10-10T18:24:33.016Z,634.73
2022-10-10T18:27:01.082Z,949.47
2022-10-10T18:29:29.097Z,776.17
2022-10-10T18:31:57.427Z,1409.43
2022-10-10T18:34:25.475Z,709.23
2022-10-10T18:36:53.473Z,1307.53
2022-10-10T18:39:21.619Z,1103.70
2022-10-10T18:41:50.992Z,580.10
2022-10-10T18:44:20.052Z,874.40
2022-10-10T18:46:49.996Z,797.03
2022-10-10T18:49:18.037Z,1065.70
2022-10-10T18:51:46.136Z,1553.33
2022-10-10T18:54:16.045Z,965.43
2022-10-10T18:56:45.047Z,759.50
2022-10-10T18:59:17.038Z,1041.97
2022-10-10T19:01:46.381Z,577.53
2022-10-10T19:04:16.403Z,744.57
2022-10-10T19:06:45.428Z,868.83
2022-10-10T19:09:15.953Z,633.33
2022-10-10T19:11:45.518Z,961.17
2022-10-10T19:14:18.128Z,761.00
2022-10-10T19:16:47.332Z,603.97
2022-10-10T19:19:17.007Z,863.37
2022-10-10T19:21:46.351Z,860.43
2022-10-10T19:24:15.370Z,870.47
2022-10-10T19:26:44.747Z,1459.97
2022-10-10T19:29:14.925Z,701.17
2022-10-10T19:31:43.059Z,964.53
2022-10-10T19:34:11.095Z,776.27
2022-10-10T19:36:39.903Z,1320.03
2022-10-10T19:39:10.011Z,1017.17
2022-10-10T19:41:38.009Z,708.60
2022-10-10T19:44:06.253Z,945.63
2022-10-10T19:46:37.537Z,694.03
2022-10-10T19:49:06.381Z,1098.03
2022-10-10T19:51:34.414Z,1131.43
2022-10-10T19:54:02.431Z,1065.97
2022-10-10T19:56:30.534Z,1278.93
2022-10-10T19:59:04.207Z,885.37
2022-10-10T20:01:32.692Z,957.17
2022-10-10T20:04:02.155Z,712.23
2022-10-10T20:06:30.378Z,962.17
2022-10-10T20:08:58.507Z,974.23
2022-10-10T20:11:26.819Z,803.73
2022-10-10T20:13:55.886Z,955.77
2022-10-10T20:16:26.614Z,990.77
2022-10-10T20:18:56.042Z,863.77
2022-10-10T20:21:31.239Z,653.17
2022-10-10T20:23:59.783Z,1053.17
2022-10-10T20:26:27.954Z,942.33
2022-10-10T20:28:57.701Z,782.57
2022-10-10T20:31:28.164Z,883.97
2022-10-10T20:34:00.655Z,682.07
2022-10-10T20:36:31.129Z,673.50
2022-10-10T20:39:01.606Z,918.57
2022-10-10T20:41:32.722Z,903.17
2022-10-10T20:44:03.280Z,696.67
2022-10-10T20:46:34.965Z,1113.97
2022-10-10T20:49:05.162Z,983.37
2022-10-10T20:51:34.566Z,1248.33
2022-10-10T20:54:04.651Z,1081.37
2022-10-10T20:56:34.228Z,1354.83
2022-10-10T20:59:02.446Z,953.73
2022-10-10T21:01:31.504Z,968.97
2022-10-10T21:04:00.183Z,1214.80
2022-10-10T21:06:30.755Z,924.33
2022-10-10T21:09:02.043Z,792.53
2022-10-10T21:11:30.216Z,1166.83
2022-10-10T21:13:59.649Z,733.67
2022-10-10T21:16:29.798Z,1109.27
2022-10-10T21:18:58.764Z,1050.93
2022-10-10T21:21:28.272Z,1080.90
2022-10-10T21:23:56.911Z,1006.93
2022-10-10T21:26:28.094Z,1999.90
2022-10-10T21:28:57.016Z,1999.90
2022-10-10T21:31:26.423Z,1999.90
2022-10-10T21:33:54.635Z,1991.17
2022-10-10T21:36:23.990Z,1793.10
2022-10-10T21:38:52.001Z,1298.10
2022-10-10T21:41:21.618Z,1999.90
2022-10-10T21:43:54.649Z,905.77
2022-10-10T21:46:24.620Z,1225.20
2022-10-10T21:48:53.046Z,1999.90
2022-10-10T21:51:21.517Z,1999.90
2022-10-10T21:53:49.906Z,821.87
2022-10-10T21:56:18.921Z,803.37
2022-10-10T21:58:46.917Z,769.90
2022-10-10T22:01:19.452Z,1999.90
2022-10-10T22:03:50.015Z,1390.83
2022-10-10T22:06:20.861Z,814.70
2022-10-10T22:08:50.740Z,1372.07
2022-10-10T22:11:20.868Z,656.53
2022-10-10T22:13:49.201Z,733.87
2022-10-10T22:16:19.764Z,847.47
2022-10-10T22:18:47.762Z,1864.17
2022-10-10T22:21:17.683Z,1127.63
2022-10-10T22:23:46.147Z,710.87
2022-10-10T22:26:15.808Z,826.37
2022-10-10T22:28:44.779Z,1233.20
2022-10-10T22:31:15.422Z,979.43
2022-10-10T22:33:45.118Z,732.00
2022-10-10T22:36:13.295Z,795.70
2022-10-10T22:38:43.553Z,781.90
2022-10-10T22:41:11.938Z,525.50
2022-10-10T22:43:39.967Z,515.50
2022-10-10T22:46:08.778Z,442.30
2022-10-10T22:48:37.320Z,872.30
2022-10-10T22:51:08.787Z,467.67
2022-10-10T22:53:37.149Z,539.23
2022-10-10T22:56:06.103Z,321.57
2022-10-10T22:58:34.393Z,294.20
2022-10-10T23:01:06.561Z,313.07
2022-10-10T23:03:34.781Z,530.97
2022-10-10T23:06:03.555Z,476.47
2022-10-10T23:08:33.335Z,706.90
2022-10-10T23:11:01.365Z,560.77
2022-10-10T23:13:29.923Z,978.70
2022-10-10T23:15:58.115Z,438.30
2022-10-10T23:18:26.143Z,410.43
2022-10-10T23:20:54.182Z,677.47
2022-10-10T23:23:22.186Z,430.90
2022-10-10T23:25:51.702Z,924.10
2022-10-10T23:28:20.146Z,640.40
2022-10-10T23:30:49.138Z,1200.90
2022-10-10T23:33:17.589Z,445.40
2022-10-10T23:35:45.841Z,318.50
2022-10-10T23:38:14.214Z,611.37
2022-10-10T23:40:42.206Z,712.80
2022-10-10T23:43:11.618Z,224.83
2022-10-10T23:45:41.242Z,332.23
2022-10-10T23:48:09.298Z,413.13
2022-10-10T23:50:37.321Z,384.20
2022-10-10T23:53:05.571Z,706.27
2022-10-10T23:55:34.016Z,369.70
2022-10-10T23:58:03.309Z,209.87
